Time;durP1;ratioP1;P1;durP2;ratioP2;P2;SDS_P1;SDS_P2;PMS_P1;PMS_P2;Temp;Humidity;BMP_temperature;BMP_pressure;BME280_temperature;BME280_humidity;BME280_pressure;Samples;Min_cycle;Max_cycle;Signal;HPM_P1;HPM_P2
2023/09/05 00:00:14;;;;;;;9.50;5.15;;;;;;;18.04;100.00;100044.16;5085510;28;20397;-32
2023/09/05 00:02:52;;;;;;;8.32;4.85;;;;;;;18.15;100.00;100057.66;5085353;28;20679;-29
2023/09/05 00:05:19;;;;;;;9.13;5.15;;;;;;;18.31;100.00;100043.09;5085353;28;20081;-29
2023/09/05 00:08:07;;;;;;;9.57;4.65;;;;;;;18.79;100.00;100059.78;5085122;28;20085;-29
2023/09/05 00:10:32;;;;;;;9.30;4.38;;;;;;;18.52;99.94;100061.97;5081933;28;20067;-31
2023/09/05 00:13:16;;;;;;;7.07;4.30;;;;;;;18.07;100.00;100059.00;5085250;28;20393;-29
2023/09/05 00:15:41;;;;;;;6.60;4.22;;;;;;;18.04;100.00;100060.34;5085565;28;20031;-29
2023/09/05 00:18:39;;;;;;;7.20;4.60;;;;;;;17.88;100.00;100050.63;5085212;28;20470;-29
2023/09/05 00:21:07;;;;;;;10.30;4.88;;;;;;;17.89;100.00;100046.84;5084776;28;20389;-30
2023/09/05 00:23:48;;;;;;;6.63;4.15;;;;;;;18.27;100.00;100055.50;5085013;28;20024;-30
2023/09/05 00:26:13;;;;;;;8.27;4.68;;;;;;;18.32;100.00;100042.00;5085113;28;20028;-33
2023/09/05 00:28:50;;;;;;;6.30;4.10;;;;;;;18.52;100.00;100057.38;5085238;28;20035;-29
2023/09/05 00:31:15;;;;;;;7.57;3.85;;;;;;;18.55;100.00;100058.72;5085065;28;20413;-29
2023/09/05 00:33:43;;;;;;;7.75;4.32;;;;;;;18.31;100.00;100036.84;5085188;28;20025;-29
2023/09/05 00:36:11;;;;;;;12.25;5.70;;;;;;;18.14;100.00;100037.13;5085040;28;20526;-30
2023/09/05 00:38:37;;;;;;;8.85;5.60;;;;;;;18.13;100.00;100038.22;5084685;28;20173;-30
2023/09/05 00:41:32;;;;;;;9.10;5.75;;;;;;;18.44;100.00;100031.72;5084962;28;20040;-29
2023/09/05 00:43:59;;;;;;;6.25;4.10;;;;;;;18.39;100.00;100037.16;5079840;28;20040;-30
2023/09/05 00:46:26;;;;;;;8.77;4.55;;;;;;;18.14;100.00;100031.75;5084919;28;20036;-29
2023/09/05 00:48:52;;;;;;;7.00;4.50;;;;;;;18.02;100.00;100040.09;5084676;28;20051;-30
2023/09/05 00:51:39;;;;;;;9.27;4.70;;;;;;;17.90;100.00;100032.28;5084271;28;20143;-30
2023/09/05 00:54:06;;;;;;;6.83;4.27;;;;;;;17.80;100.00;100022.25;5087454;28;20024;-29
2023/09/05 00:56:32;;;;;;;6.97;4.28;;;;;;;18.11;100.00;100008.81;5088804;28;20059;-30
2023/09/05 00:59:00;;;;;;;7.45;3.72;;;;;;;18.06;100.00;100015.03;5088508;28;20024;-31
2023/09/05 01:01:26;;;;;;;8.35;4.15;;;;;;;18.05;100.00;100013.38;5088573;28;20478;-29
2023/09/05 01:04:13;;;;;;;9.02;5.20;;;;;;;18.33;100.00;100007.69;5088451;28;20032;-29
2023/09/05 01:07:09;;;;;;;12.95;5.60;;;;;;;18.33;100.00;100024.72;5088792;28;20030;-30
2023/09/05 01:09:59;;;;;;;8.55;4.38;;;;;;;18.31;100.00;100016.09;5088558;28;20040;-32
2023/09/05 01:12:24;;;;;;;8.07;4.50;;;;;;;18.30;100.00;100011.75;5088096;28;20028;-30
2023/09/05 01:14:50;;;;;;;8.38;4.28;;;;;;;18.29;100.00;100004.75;5088006;28;20020;-30
2023/09/05 01:17:44;;;;;;;6.82;4.43;;;;;;;18.63;99.18;100023.88;5088333;28;20020;-29
2023/09/05 01:20:45;;;;;;;8.60;4.30;;;;;;;18.35;100.00;100011.78;5088493;28;20028;-29
2023/09/05 01:23:17;;;;;;;6.75;4.20;;;;;;;18.25;100.00;99998.28;5086804;28;20433;-28
2023/09/05 01:25:59;;;;;;;7.32;4.25;;;;;;;18.21;100.00;100008.00;5088152;28;20420;-32
2023/09/05 01:28:26;;;;;;;6.53;4.30;;;;;;;18.06;100.00;100006.94;5088004;28;20060;-29
2023/09/05 01:31:01;;;;;;;7.35;4.40;;;;;;;17.98;100.00;99990.44;5088113;28;20040;-29
2023/09/05 01:33:26;;;;;;;7.03;4.28;;;;;;;17.86;100.00;99988.03;5087937;28;20025;-28
2023/09/05 01:36:10;;;;;;;7.50;4.28;;;;;;;17.97;100.00;99994.25;5088150;28;20051;-28
2023/09/05 01:39:06;;;;;;;5.80;4.15;;;;;;;18.06;100.00;100009.63;5088172;28;20465;-30
2023/09/05 01:41:31;;;;;;;6.05;3.70;;;;;;;18.13;100.00;99995.06;5067107;28;20090;-29
2023/09/05 01:44:05;;;;;;;6.43;3.75;;;;;;;18.18;100.00;99995.03;5088122;28;20047;-28
2023/09/05 01:46:31;;;;;;;6.95;4.20;;;;;;;18.10;100.00;99992.88;5087642;28;20107;-29
2023/09/05 01:49:23;;;;;;;6.78;4.18;;;;;;;18.18;100.00;99985.03;5087617;28;20123;-28
2023/09/05 01:52:06;;;;;;;6.45;3.85;;;;;;;18.30;100.00;99995.56;5085475;28;20050;-30
2023/09/05 01:54:32;;;;;;;6.10;4.10;;;;;;;18.15;100.00;99992.88;5088015;28;20025;-29
2023/09/05 01:57:18;;;;;;;7.10;4.20;;;;;;;18.18;100.00;100005.84;5087398;28;20051;-30
2023/09/05 01:59:43;;;;;;;7.85;4.05;;;;;;;18.27;100.00;100010.41;5087958;28;20040;-29
2023/09/05 02:02:11;;;;;;;7.05;3.92;;;;;;;18.38;100.00;100024.72;5087821;28;20030;-30
2023/09/05 02:04:37;;;;;;;6.10;3.70;;;;;;;18.29;100.00;100015.56;5086535;28;20543;-29
2023/09/05 02:07:20;;;;;;;7.97;4.80;;;;;;;18.30;100.00;100019.06;5087538;28;20020;-29
2023/09/05 02:09:46;;;;;;;10.48;5.30;;;;;;;18.16;100.00;100016.88;5087437;28;20094;-31
2023/09/05 02:12:14;;;;;;;11.30;5.85;;;;;;;18.23;100.00;100022.03;5087586;28;20428;-31
2023/09/05 02:14:45;;;;;;;10.23;6.40;;;;;;;18.24;100.00;100029.03;5087422;28;20048;-30
2023/09/05 02:17:20;;;;;;;7.82;4.75;;;;;;;18.27;100.00;100026.63;5086885;28;20082;-29
2023/09/05 02:20:18;;;;;;;6.00;3.63;;;;;;;18.39;100.00;100039.03;5087412;28;20060;-29
2023/09/05 02:22:44;;;;;;;7.18;4.38;;;;;;;18.50;99.86;100037.13;5032259;28;20066;-29
2023/09/05 02:25:19;;;;;;;7.82;4.88;;;;;;;18.55;100.00;100037.09;5087165;28;20536;-30
2023/09/05 02:27:44;;;;;;;6.60;3.88;;;;;;;18.83;98.87;100041.94;5087258;28;20035;-29
2023/09/05 02:30:29;;;;;;;7.15;4.20;;;;;;;18.55;100.00;100039.81;5087249;28;20032;-29
2023/09/05 02:32:55;;;;;;;10.90;5.80;;;;;;;18.59;99.78;100040.88;5086904;28;20056;-29
2023/09/05 02:35:30;;;;;;;11.00;6.43;;;;;;;18.19;100.00;100034.47;5086839;28;20028;-29
2023/09/05 02:37:58;;;;;;;12.40;6.03;;;;;;;18.54;100.00;100040.91;5086515;28;20016;-29
2023/09/05 02:40:43;;;;;;;15.32;7.30;;;;;;;18.35;100.00;100027.97;5086520;28;20042;-30
2023/09/05 02:43:08;;;;;;;13.20;7.18;;;;;;;18.39;100.00;100022.84;5086652;28;20036;-29
2023/09/05 02:45:34;;;;;;;9.25;6.70;;;;;;;18.26;100.00;100033.09;5086655;28;20028;-29
2023/09/05 02:48:23;;;;;;;10.20;5.53;;;;;;;18.35;100.00;100029.84;5086613;28;20028;-30
2023/09/05 02:50:48;;;;;;;10.10;6.15;;;;;;;18.34;100.00;100028.22;5083351;28;20213;-29
2023/09/05 02:53:16;;;;;;;9.57;5.00;;;;;;;18.25;100.00;100028.78;5086878;28;20118;-29
2023/09/05 02:56:09;;;;;;;6.93;4.20;;;;;;;18.26;100.00;100026.88;5086452;28;20028;-29
2023/09/05 02:58:37;;;;;;;8.38;4.85;;;;;;;18.12;100.00;100017.72;5086600;28;20469;-29
2023/09/05 03:01:21;;;;;;;11.23;6.45;;;;;;;17.91;100.00;100025.00;5086330;28;20063;-29
2023/09/05 03:03:49;;;;;;;11.95;6.22;;;;;;;18.01;100.00;100022.31;5086415;28;20025;-32
2023/09/05 03:06:16;;;;;;;9.05;4.90;;;;;;;18.18;100.00;100032.81;5084883;28;20569;-29
2023/09/05 03:08:44;;;;;;;8.65;4.82;;;;;;;18.07;100.00;100027.41;5086206;28;20417;-28
2023/09/05 03:11:14;;;;;;;9.82;5.82;;;;;;;18.13;100.00;100030.13;5086487;28;20458;-28
2023/09/05 03:14:08;;;;;;;8.40;4.88;;;;;;;18.11;100.00;100026.91;5086182;28;20058;-29
2023/09/05 03:16:34;;;;;;;7.97;4.85;;;;;;;18.14;100.00;100026.34;5082913;28;20193;-28
2023/09/05 03:18:59;;;;;;;8.10;4.88;;;;;;;18.16;100.00;100027.69;5086434;28;20466;-29
2023/09/05 03:21:41;;;;;;;9.20;4.50;;;;;;;18.12;100.00;100020.41;5086152;28;20031;-32
2023/09/05 03:24:42;;;;;;;8.68;4.57;;;;;;;18.14;100.00;100026.34;5086282;28;20028;-28
2023/09/05 03:27:07;;;;;;;8.35;4.63;;;;;;;18.44;100.00;100020.91;5072854;28;20055;-30
2023/09/05 03:29:35;;;;;;;6.03;4.25;;;;;;;18.26;100.00;100021.47;5086062;28;20028;-28
2023/09/05 03:32:06;;;;;;;8.15;4.45;;;;;;;18.35;100.00;100030.66;5086243;28;20030;-29
2023/09/05 03:34:32;;;;;;;7.63;4.47;;;;;;;18.27;100.00;100034.72;5085853;28;20093;-30
2023/09/05 03:37:29;;;;;;;6.47;4.10;;;;;;;18.18;100.00;100047.13;5085787;28;20657;-29
2023/09/05 03:39:54;;;;;;;8.68;4.20;;;;;;;18.10;100.00;100052.25;5081054;28;20762;-29
2023/09/05 03:42:29;;;;;;;7.93;4.43;;;;;;;18.17;100.00;100053.59;5085807;28;20049;-30
2023/09/05 03:44:56;;;;;;;8.43;4.50;;;;;;;18.24;100.00;100048.75;5085913;28;20050;-29
2023/09/05 03:47:31;;;;;;;8.95;5.00;;;;;;;18.39;100.00;100056.03;5085890;28;20046;-31
2023/09/05 03:49:56;;;;;;;6.35;4.13;;;;;;;18.27;100.00;100047.41;5085315;28;20131;-30
2023/09/05 03:52:22;;;;;;;6.20;4.53;;;;;;;18.40;100.00;100063.06;5084995;28;20036;-32
2023/09/05 03:55:00;;;;;;;7.85;4.35;;;;;;;18.59;100.00;100070.59;5085605;28;20424;-34
2023/09/05 03:57:25;;;;;;;7.15;4.15;;;;;;;18.47;100.00;100069.00;5085460;28;20137;-31
2023/09/05 03:59:59;;;;;;;5.20;3.35;;;;;;;18.39;100.00;100071.44;5085650;28;20073;-30
2023/09/05 04:02:25;;;;;;;6.32;3.83;;;;;;;18.50;100.00;100058.72;5085543;28;20081;-29
2023/09/05 04:04:55;;;;;;;6.80;4.20;;;;;;;18.47;100.00;100058.19;5085200;28;20020;-29
2023/09/05 04:07:21;;;;;;;10.20;5.30;;;;;;;18.44;100.00;100058.72;5085273;28;20065;-30
2023/09/05 04:09:47;;;;;;;9.10;5.15;;;;;;;18.38;100.00;100057.09;5085438;28;20100;-29
2023/09/05 04:12:45;;;;;;;11.32;5.65;;;;;;;18.44;100.00;100058.72;5085469;28;20657;-29
2023/09/05 04:15:33;;;;;;;35.97;24.35;;;;;;;18.36;100.00;100067.38;5062316;28;20060;-30
2023/09/05 04:17:59;;;;;;;24.42;13.93;;;;;;;18.39;100.00;100072.25;5053232;28;20044;-29
2023/09/05 04:20:43;;;;;;;19.90;11.40;;;;;;;18.26;100.00;100062.78;5085104;28;20050;-28
2023/09/05 04:23:39;;;;;;;12.40;6.72;;;;;;;18.33;100.00;100067.09;5084914;28;20028;-29
2023/09/05 04:26:39;;;;;;;15.00;7.78;;;;;;;18.42;100.00;100074.38;5085204;28;20062;-29
2023/09/05 04:29:05;;;;;;;11.40;6.15;;;;;;;18.23;100.00;100076.03;5087611;28;20047;-28
2023/09/05 04:31:39;;;;;;;11.05;6.72;;;;;;;18.40;100.00;100063.06;5089291;28;20110;-29
2023/09/05 04:34:04;;;;;;;9.85;5.97;;;;;;;18.49;100.00;100060.63;5089778;28;20031;-29
2023/09/05 04:36:43;;;;;;;9.45;5.88;;;;;;;18.54;100.00;100055.22;5089011;28;20024;-29
2023/09/05 04:39:41;;;;;;;7.90;4.63;;;;;;;18.63;100.00;100050.06;5089193;28;20501;-32
2023/09/05 04:42:07;;;;;;;17.48;8.55;;;;;;;18.64;100.00;100051.69;5089359;28;20032;-28
2023/09/05 04:44:42;;;;;;;19.30;8.65;;;;;;;18.87;100.00;100045.72;5089221;28;20789;-30
2023/09/05 04:47:29;;;;;;;19.92;9.02;;;;;;;18.93;100.00;100051.13;5088787;28;20016;-33
2023/09/05 04:50:21;;;;;;;13.27;6.80;;;;;;;18.90;100.00;100046.25;5088694;28;20032;-30
2023/09/05 04:52:46;;;;;;;11.77;5.97;;;;;;;18.86;100.00;100041.41;5087897;28;20071;-29
2023/09/05 04:55:17;;;;;;;9.63;5.85;;;;;;;19.08;100.00;100040.25;5088858;28;20134;-29
2023/09/05 04:57:43;;;;;;;17.83;9.05;;;;;;;19.11;100.00;100039.72;5088757;28;20031;-30
2023/09/05 05:00:13;;;;;;;14.32;7.93;;;;;;;19.29;100.00;100030.19;5088703;28;20020;-29
2023/09/05 05:02:56;;;;;;;10.25;4.70;;;;;;;19.36;99.95;100040.69;5086150;28;20052;-32
2023/09/05 05:05:22;;;;;;;8.38;5.03;;;;;;;19.33;99.19;100030.41;5088450;28;20028;-29
2023/09/05 05:07:56;;;;;;;7.05;4.20;;;;;;;19.12;100.00;100044.00;5088919;28;20463;-29
2023/09/05 05:10:22;;;;;;;10.38;5.63;;;;;;;19.22;99.91;100043.16;5088787;28;20077;-31
2023/09/05 05:13:23;;;;;;;9.90;6.47;;;;;;;19.23;100.00;100037.50;5095451;28;20461;-28
2023/09/05 05:16:00;;;;;;;11.68;7.57;;;;;;;19.14;100.00;100041.03;5065276;28;20083;-29
2023/09/05 05:18:25;;;;;;;12.27;6.85;;;;;;;19.07;100.00;100038.63;5103107;28;20031;-29
2023/09/05 05:21:11;;;;;;;9.80;5.43;;;;;;;19.27;100.00;100049.38;5108523;28;20027;-32
2023/09/05 05:23:36;;;;;;;14.23;7.65;;;;;;;19.42;98.66;100045.78;5108418;28;20043;-30
2023/09/05 05:26:02;;;;;;;15.35;7.35;;;;;;;19.24;100.00;100049.91;5109003;28;20020;-29
2023/09/05 05:28:27;;;;;;;13.20;7.90;;;;;;;19.41;98.90;100051.47;5108601;28;20057;-29
2023/09/05 05:30:53;;;;;;;12.57;6.72;;;;;;;19.21;100.00;100039.66;5108439;27;20032;-30
2023/09/05 05:33:27;;;;;;;12.13;6.65;;;;;;;19.30;100.00;100050.72;5108337;28;20023;-31
2023/09/05 05:36:29;;;;;;;14.60;6.80;;;;;;;19.38;99.98;100050.13;5108488;28;20098;-29
2023/09/05 05:38:52;;;;;;;7.40;4.22;;;;;;;19.17;100.00;100046.72;5106720;28;20055;-29
2023/09/05 05:41:27;;;;;;;6.20;3.97;;;;;;;19.31;99.93;100060.44;5108493;28;20027;-31
2023/09/05 05:43:56;;;;;;;8.65;4.07;;;;;;;19.31;100.00;100051.50;5108356;28;20023;-29
2023/09/05 05:46:33;;;;;;;6.65;3.90;;;;;;;19.28;100.00;100042.06;5108022;28;20396;-32
2023/09/05 05:49:29;;;;;;;6.37;3.70;;;;;;;19.46;100.00;100056.84;5108210;28;20031;-29
2023/09/05 05:51:56;;;;;;;5.55;3.78;;;;;;;19.56;98.91;100058.72;5108371;28;20048;-29
2023/09/05 05:54:31;;;;;;;7.32;3.95;;;;;;;19.53;100.00;100051.94;5107905;28;20114;-33
2023/09/05 05:56:57;;;;;;;6.18;3.70;;;;;;;19.77;98.71;100064.84;5108133;28;20706;-32
2023/09/05 05:59:34;;;;;;;6.95;3.65;;;;;;;19.80;97.41;100058.88;5107978;28;20037;-31
2023/09/05 06:01:59;;;;;;;8.07;4.20;;;;;;;19.93;95.11;100066.34;5107982;28;20019;-29
2023/09/05 06:04:33;;;;;;;9.43;4.20;;;;;;;19.86;95.44;100060.47;5107350;28;20804;-29
2023/09/05 06:06:59;;;;;;;7.70;3.90;;;;;;;19.97;95.61;100062.00;5107676;28;20032;-30
2023/09/05 06:09:51;;;;;;;6.57;4.10;;;;;;;19.92;95.45;100078.28;5107721;28;20117;-30
2023/09/05 06:12:37;;;;;;;10.48;4.97;;;;;;;19.94;95.15;100072.56;5104673;28;20456;-29
2023/09/05 06:15:02;;;;;;;11.23;4.97;;;;;;;19.99;95.30;100092.28;5106744;28;20361;-30
2023/09/05 06:17:40;;;;;;;11.68;5.65;;;;;;;19.97;95.51;100099.88;5093849;28;20169;-29
2023/09/05 06:20:06;;;;;;;10.40;4.85;;;;;;;19.95;95.22;100102.06;5102116;28;20020;-29
2023/09/05 06:22:41;;;;;;;6.15;3.80;;;;;;;19.84;96.60;100127.59;5095695;28;20028;-29
2023/09/05 06:25:07;;;;;;;10.43;6.05;;;;;;;19.88;96.74;100128.66;5087019;28;20024;-30
2023/09/05 06:27:44;;;;;;;12.00;7.03;;;;;;;19.67;97.98;100127.88;5087110;28;20073;-32
2023/09/05 06:30:11;;;;;;;27.17;15.57;;;;;;;19.89;97.03;100132.97;5087155;28;20050;-29
2023/09/05 06:32:56;;;;;;;21.65;12.73;;;;;;;19.87;97.45;100143.25;5086898;28;20050;-29
2023/09/05 06:35:22;;;;;;;18.70;11.43;;;;;;;19.86;96.81;100141.66;5086216;28;20516;-31
2023/09/05 06:38:16;;;;;;;50.80;30.60;;;;;;;20.04;96.18;100154.53;5086591;28;20093;-29
2023/09/05 06:40:44;;;;;;;28.50;17.67;;;;;;;19.82;98.54;100152.22;5102204;28;20032;-29
2023/09/05 06:43:33;;;;;;;15.18;9.60;;;;;;;19.85;98.80;100156.25;5106858;28;20081;-31
2023/09/05 06:46:06;;;;;;;11.60;6.97;;;;;;;19.85;98.36;100146.22;5106757;28;20523;-30
2023/09/05 06:48:34;;;;;;;9.30;5.43;;;;;;;19.92;98.54;100145.94;5106360;28;20074;-30
2023/09/05 06:51:00;;;;;;;7.32;4.03;;;;;;;19.91;97.80;100149.72;5105780;28;20039;-28
2023/09/05 06:53:45;;;;;;;7.15;4.90;;;;;;;19.78;99.42;100142.22;5106202;28;20035;-29
2023/09/05 06:56:42;;;;;;;8.80;5.57;;;;;;;19.59;100.00;100142.00;5103632;28;20028;-28
2023/09/05 07:02:02;;;;;;;8.60;4.75;;;;;;;19.66;100.00;100156.84;5096368;28;20035;-31
2023/09/05 07:04:43;;;;;;;14.70;5.22;;;;;;;19.56;100.00;100167.72;5106070;28;20037;-31
2023/09/05 07:07:08;;;;;;;11.00;6.53;;;;;;;19.55;100.00;100168.78;5103839;28;20019;-33
2023/09/05 07:09:46;;;;;;;10.02;6.07;;;;;;;19.43;100.00;100170.97;5106777;28;20415;-33
2023/09/05 07:12:12;;;;;;;;;;;;;;;19.56;100.00;100181.22;5106816;28;20043;-33
2023/09/05 07:14:46;;;;;;;12.02;5.60;;;;;;;19.56;100.00;100167.72;5106415;28;20379;-31
2023/09/05 07:17:11;;;;;;;7.57;5.30;;;;;;;19.69;100.00;100158.19;5106529;28;20108;-33
2023/09/05 07:19:49;;;;;;;12.77;4.97;;;;;;;19.53;100.00;100165.53;5106351;28;20110;-31
2023/09/05 07:22:14;;;;;;;10.52;6.10;;;;;;;19.50;100.00;100162.59;5106450;28;20039;-32
2023/09/05 07:24:58;;;;;;;8.32;5.10;;;;;;;19.63;100.00;100160.09;5104856;28;20035;-31
2023/09/05 07:28:02;;;;;;;8.57;5.10;;;;;;;19.59;100.00;100159.03;5103658;28;20039;-28
2023/09/05 07:30:52;;;;;;;9.50;5.60;;;;;;;19.52;100.00;100168.53;5062160;28;20094;-28
2023/09/05 07:33:18;;;;;;;10.00;6.60;;;;;;;19.43;100.00;100165.56;5062642;28;20032;-27
2023/09/05 07:35:44;;;;;;;10.02;5.80;;;;;;;19.46;100.00;100175.84;5089426;28;20093;-31
2023/09/05 07:38:09;;;;;;;8.32;5.80;;;;;;;19.78;100.00;100169.28;5105813;28;20030;-30
2023/09/05 07:41:01;;;;;;;9.35;5.78;;;;;;;20.16;100.00;100165.00;5106104;28;20027;-31
2023/09/05 07:43:54;;;;;;;7.80;4.90;;;;;;;20.17;100.00;100168.53;5105914;28;20031;-30
2023/09/05 07:46:29;;;;;;;8.68;5.55;;;;;;;20.36;100.00;100165.97;5105822;28;20066;-31
2023/09/05 07:48:54;;;;;;;9.60;5.43;;;;;;;20.42;100.00;100167.56;5105571;28;20482;-31
2023/09/05 07:51:29;;;;;;;7.65;5.22;;;;;;;20.45;100.00;100162.38;5105155;28;20052;-31
2023/09/05 07:54:30;;;;;;;8.27;4.78;;;;;;;20.39;100.00;100166.22;5105959;28;20023;-28
2023/09/05 07:56:55;;;;;;;6.50;4.85;;;;;;;20.50;100.00;100177.00;5105532;28;20062;-34
2023/09/05 07:59:40;;;;;;;7.25;5.25;;;;;;;21.13;100.00;100187.06;5105754;28;20051;-29
2023/09/05 08:02:38;;;;;;;7.22;5.32;;;;;;;21.54;96.03;100190.16;5105512;28;20102;-30
2023/09/05 08:05:35;;;;;;;7.57;4.78;;;;;;;21.38;94.24;100199.53;5082167;28;20042;-32
2023/09/05 08:08:01;;;;;;;;;;;;;;;21.41;91.10;100188.94;5068303;28;20059;-30
2023/09/05 08:10:38;;;;;;;8.53;5.37;;;;;;;21.33;92.55;100196.88;5105641;28;19990;-31
2023/09/05 08:13:04;;;;;;;9.73;8.65;;;;;;;21.33;92.62;100192.28;5105702;28;20402;-30
2023/09/05 08:15:30;;;;;;;8.43;5.82;;;;;;;21.35;92.53;100195.50;5105694;28;20031;-29
2023/09/05 08:17:55;;;;;;;14.23;7.07;;;;;;;21.58;93.14;100193.91;5105835;28;20187;-29
2023/09/05 08:20:48;;;;;;;8.00;6.25;;;;;;;21.50;92.73;100194.56;5105090;28;20031;-29
2023/09/05 08:23:14;;;;;;;7.45;5.53;;;;;;;21.64;92.07;100189.25;5105270;28;20036;-29
2023/09/05 08:25:39;;;;;;;8.93;6.30;;;;;;;21.81;90.68;100189.56;5105629;28;20020;-31
2023/09/05 08:28:05;;;;;;;9.50;6.53;;;;;;;21.48;90.01;100196.75;5105254;28;20482;-31
2023/09/05 08:30:31;;;;;;;9.45;6.07;;;;;;;21.58;89.59;100191.22;5105510;28;20031;-29
2023/09/05 08:33:03;;;;;;;7.65;6.05;;;;;;;21.56;88.55;100187.97;5105260;28;20031;-29
2023/09/05 08:35:31;;;;;;;8.90;5.97;;;;;;;21.53;86.88;100193.97;5105150;28;20102;-33
2023/09/05 08:37:57;;;;;;;7.68;6.32;;;;;;;21.34;87.35;100190.38;5105531;28;20104;-29
2023/09/05 08:40:45;;;;;;;9.18;6.20;;;;;;;21.33;87.19;100189.56;5105488;28;20035;-29
2023/09/05 08:43:10;;;;;;;9.75;6.68;;;;;;;21.24;87.70;100196.69;5105437;28;20081;-29
2023/09/05 08:46:00;;;;;;;8.82;6.45;;;;;;;21.20;89.29;100182.88;5105299;28;20032;-29
2023/09/05 08:48:27;;;;;;;8.10;6.13;;;;;;;21.30;88.03;100181.19;5105701;28;20031;-29
2023/09/05 08:51:04;;;;;;;10.55;7.10;;;;;;;21.32;89.46;100187.13;5105328;28;20036;-29
2023/09/05 08:54:03;;;;;;;12.07;7.07;;;;;;;21.33;91.24;100184.13;5105151;28;20035;-29
2023/09/05 09:00:12;;;;;;;11.90;8.77;;;;;;;21.57;88.01;100196.91;5095379;28;20059;-30
2023/09/05 09:02:37;;;;;;;9.85;7.35;;;;;;;21.51;88.81;100198.88;5061450;28;20123;-29
2023/09/05 09:05:06;;;;;;;12.40;7.80;;;;;;;21.45;90.01;100202.75;5061820;28;20058;-29
2023/09/05 09:07:31;;;;;;;12.27;8.50;;;;;;;21.45;89.59;100197.31;5082346;28;20067;-31
2023/09/05 09:10:35;;;;;;;15.27;11.07;;;;;;;21.46;90.25;100215.22;5105199;28;20054;-31
2023/09/05 09:13:18;;;;;;;21.17;14.75;;;;;;;21.49;89.93;100220.06;5041493;28;20242;-29
2023/09/05 09:16:08;;;;;;;12.40;9.05;;;;;;;21.51;89.61;100228.72;5045046;28;20033;-28
2023/09/05 09:18:34;;;;;;;13.20;10.25;;;;;;;21.71;88.34;100224.16;5092365;28;20059;-28
2023/09/05 09:21:18;;;;;;;10.73;7.38;;;;;;;21.80;87.60;100241.41;5108477;28;20078;-29
2023/09/05 09:24:15;;;;;;;7.97;6.57;;;;;;;21.65;88.29;100247.84;5108540;27;20020;-29
2023/09/05 09:26:42;;;;;;;9.18;7.57;;;;;;;21.61;88.54;100249.50;5108619;28;20532;-29
2023/09/05 09:29:13;;;;;;;12.50;8.43;;;;;;;21.59;88.69;100251.72;5108626;28;20051;-29
2023/09/05 09:31:39;;;;;;;12.60;8.57;;;;;;;21.78;88.27;100243.63;5108256;28;20023;-29
2023/09/05 09:34:19;;;;;;;12.80;9.35;;;;;;;21.48;88.84;100217.66;5108767;28;20111;-29
2023/09/05 09:37:20;;;;;;;14.45;8.00;;;;;;;21.57;88.83;100254.69;5107911;28;20020;-29
2023/09/05 09:39:48;;;;;;;12.20;8.57;;;;;;;21.63;88.67;100258.19;5102017;27;20069;-29
2023/09/05 09:42:13;;;;;;;11.93;8.25;;;;;;;21.62;89.87;100251.94;5108364;28;20605;-29
2023/09/05 09:45:05;;;;;;;8.23;6.72;;;;;;;21.82;89.05;100252.81;5106884;28;20035;-29
2023/09/05 09:47:31;;;;;;;9.65;7.47;;;;;;;21.88;89.18;100254.34;5108329;28;20034;-29
2023/09/05 09:49:58;;;;;;;10.13;7.45;;;;;;;21.84;88.82;100253.31;5108095;28;20558;-30
2023/09/05 09:52:27;;;;;;;8.70;7.25;;;;;;;21.82;87.62;100244.66;5108168;27;20614;-29
2023/09/05 09:55:08;;;;;;;8.88;6.95;;;;;;;21.79;88.73;100256.09;5108033;28;20079;-32
2023/09/05 09:58:13;;;;;;;9.55;7.50;;;;;;;21.98;86.86;100259.66;5108424;28;20027;-31
2023/09/05 10:01:11;;;;;;;11.32;7.65;;;;;;;21.89;88.48;100247.84;5107627;28;20117;-30
2023/09/05 10:03:38;;;;;;;9.00;7.13;;;;;;;21.98;86.69;100258.88;5104334;28;20127;-30
2023/09/05 10:06:10;;;;;;;;;;;;;;;22.10;84.88;100255.75;5108335;28;20040;-32
2023/09/05 10:08:36;;;;;;;9.20;7.53;;;;;;;22.12;86.90;100254.34;5107585;28;19916;-30
2023/09/05 10:11:12;;;;;;;9.63;7.38;;;;;;;22.11;86.08;100246.47;5107728;28;20062;-31
2023/09/05 10:16:27;;;;;;;11.40;7.63;;;;;;;22.38;85.44;100252.13;5096284;28;20043;-30
2023/09/05 10:19:21;;;;;;;9.23;7.90;;;;;;;22.23;85.52;100260.44;5107750;27;20050;-30
2023/09/05 10:21:48;;;;;;;10.25;7.00;;;;;;;22.18;86.41;100258.59;5106472;28;20046;-30
2023/09/05 10:24:20;;;;;;;8.25;7.13;;;;;;;22.21;86.05;100260.75;5105948;28;20035;-31
2023/09/05 10:26:47;;;;;;;10.90;7.07;;;;;;;22.36;85.25;100248.88;5106171;27;20028;-30
2023/09/05 10:29:39;;;;;;;9.68;8.02;;;;;;;22.49;86.51;100257.41;5107166;28;20038;-30
2023/09/05 10:32:26;;;;;;;11.05;9.05;;;;;;;22.52;85.54;100273.16;5107287;28;20169;-30
2023/09/05 10:34:55;;;;;;;11.27;7.90;;;;;;;22.45;85.64;100258.03;5107520;28;20136;-31
2023/09/05 10:38:02;;;;;;;10.77;7.80;;;;;;;22.65;85.57;100269.69;5106930;28;20063;-32
2023/09/05 10:40:57;;;;;;;10.23;7.75;;;;;;;23.01;83.05;100285.44;5107136;28;20028;-30
2023/09/05 10:43:54;;;;;;;10.88;7.55;;;;;;;23.02;80.48;100287.09;5097878;28;20504;-34
2023/09/05 10:46:52;;;;;;;11.32;8.30;;;;;;;23.03;82.53;100277.84;5106548;28;20068;-30
2023/09/05 10:49:46;;;;;;;9.55;7.57;;;;;;;23.10;81.66;100289.13;5098287;28;20032;-30
2023/09/05 10:53:00;;;;;;;7.55;6.20;;;;;;;23.16;74.23;100287.13;5102463;27;20130;-30
2023/09/05 10:55:50;;;;;;;10.27;7.00;;;;;;;23.09;73.57;100286.69;5103198;27;20653;-29
2023/09/05 10:58:56;;;;;;;9.00;6.15;;;;;;;23.04;74.10;100282.16;5106730;28;20024;-30
2023/09/05 11:01:54;;;;;;;10.60;6.38;;;;;;;22.78;75.94;100281.72;5106893;28;20047;-33
2023/09/05 11:04:55;;;;;;;8.80;6.80;;;;;;;22.71;75.89;100282.09;5106831;28;20028;-30
2023/09/05 11:07:46;;;;;;;;;;;;;;;;;;;;;
2023/09/05 11:10:42;;;;;;;10.82;6.85;;;;;;;22.55;75.83;100277.97;5103343;28;20035;-30
2023/09/05 11:13:10;;;;;;;9.85;7.05;;;;;;;22.38;73.93;100279.28;5106774;28;20106;-31
2023/09/05 11:15:44;;;;;;;10.90;6.68;;;;;;;22.62;73.12;100283.88;5106208;28;20444;-30
2023/09/05 11:18:19;;;;;;;8.48;6.35;;;;;;;22.56;74.06;100276.91;5106513;28;20036;-29
2023/09/05 11:20:47;;;;;;;9.90;6.78;;;;;;;22.77;75.19;100280.13;5106714;28;20019;-30
2023/09/05 11:23:14;;;;;;;8.25;6.50;;;;;;;22.96;71.73;100283.59;5106067;28;20047;-31
2023/09/05 11:25:53;;;;;;;11.07;6.82;;;;;;;23.05;72.19;100270.19;5106230;28;20045;-30
2023/09/05 11:28:23;;;;;;;8.93;6.28;;;;;;;23.36;70.25;100291.44;5106068;28;20023;-30
2023/09/05 11:31:11;;;;;;;8.75;6.32;;;;;;;23.31;68.16;100288.78;5106513;28;20034;-30
2023/09/05 11:33:37;;;;;;;10.27;6.18;;;;;;;23.35;70.37;100296.03;5106046;28;20088;-32
2023/09/05 11:36:17;;;;;;;8.20;6.15;;;;;;;23.48;67.93;100294.47;5106084;28;20024;-30
2023/09/05 11:39:22;;;;;;;8.07;5.90;;;;;;;23.38;66.78;100300.09;5106105;28;20028;-30
2023/09/05 11:42:30;;;;;;;8.57;5.90;;;;;;;23.29;66.02;100296.44;5041641;28;20048;-30
2023/09/05 11:45:20;;;;;;;;;;;;;;;23.28;65.77;100301.06;5106430;28;20404;-30
2023/09/05 11:47:48;;;;;;;9.07;6.07;;;;;;;23.03;67.99;100299.59;5096803;28;19916;-30
2023/09/05 11:50:32;;;;;;;9.38;5.60;;;;;;;22.81;67.97;100303.69;5105564;28;20537;-32
2023/09/05 11:53:23;;;;;;;10.65;6.63;;;;;;;22.86;70.23;100292.75;5105724;28;20035;-30
2023/09/05 11:55:49;;;;;;;8.65;6.43;;;;;;;22.54;71.23;100281.81;5105545;28;20512;-30
2023/09/05 11:58:26;;;;;;;7.78;6.63;;;;;;;22.52;73.38;100292.16;5105637;28;20026;-30
2023/09/05 12:00:53;;;;;;;;;;;;;;;22.59;73.65;100285.25;5106011;28;20642;-31
2023/09/05 12:03:19;;;;;;;14.23;7.17;;;;;;;22.79;73.52;100284.16;5105635;28;20427;-30
2023/09/05 12:05:51;;;;;;;10.40;7.28;;;;;;;22.83;74.60;100290.59;5105235;28;20265;-30
2023/09/05 12:08:30;;;;;;;12.55;7.60;;;;;;;22.77;74.99;100297.22;5105409;28;20046;-30
2023/09/05 12:10:57;;;;;;;8.95;7.50;;;;;;;22.91;74.57;100285.63;5105529;28;20028;-31